createdAt,value
2022-12-14T00:01:41.149Z,-3.33
2022-12-14T00:04:07.915Z,-3.30
2022-12-14T00:06:35.037Z,-3.36
2022-12-14T00:09:04.003Z,-3.39
2022-12-14T00:11:32.260Z,-3.37
2022-12-14T00:14:01.493Z,-3.34
2022-12-14T00:16:30.927Z,-3.27
2022-12-14T00:18:59.699Z,-3.30
2022-12-14T00:21:28.766Z,-3.29
2022-12-14T00:23:57.514Z,-3.44
2022-12-14T00:26:26.463Z,-3.44
2022-12-14T00:28:54.954Z,-3.50
2022-12-14T00:31:22.962Z,-3.49
2022-12-14T00:33:51.683Z,-3.46
2022-12-14T00:36:19.258Z,-3.46
2022-12-14T00:38:46.394Z,-3.48
2022-12-14T00:41:13.177Z,-3.46
2022-12-14T00:43:39.966Z,-3.45
2022-12-14T00:46:07.367Z,-3.44
2022-12-14T00:48:34.442Z,-3.39
2022-12-14T00:51:01.402Z,-3.38
2022-12-14T00:53:28.144Z,-3.32
2022-12-14T00:55:54.893Z,-3.28
2022-12-14T00:58:23.748Z,-3.33
2022-12-14T01:01:04.658Z,-3.39
2022-12-14T01:03:32.007Z,-3.34
2022-12-14T01:05:59.164Z,-3.27
2022-12-14T01:08:26.203Z,-3.38
2022-12-14T01:10:53.781Z,-3.35
2022-12-14T01:13:20.467Z,-3.33
2022-12-14T01:15:48.671Z,-3.37
2022-12-14T01:18:15.552Z,-3.47
2022-12-14T01:20:42.230Z,-3.49
2022-12-14T01:23:09.551Z,-3.44
2022-12-14T01:25:36.579Z,-3.33
2022-12-14T01:28:03.321Z,-3.28
2022-12-14T01:30:31.092Z,-3.07
2022-12-14T01:32:57.779Z,-3.06
2022-12-14T01:35:24.500Z,-3.03
2022-12-14T01:37:53.196Z,-2.88
2022-12-14T01:40:22.839Z,-2.86
2022-12-14T01:42:49.461Z,-2.79
2022-12-14T01:45:21.689Z,-2.85
2022-12-14T01:47:54.628Z,-2.75
2022-12-14T01:50:24.453Z,-2.70
2022-12-14T01:52:55.773Z,-2.61
2022-12-14T01:55:33.764Z,-2.63
2022-12-14T01:58:07.192Z,-2.66
2022-12-14T02:00:35.264Z,-2.69
2022-12-14T02:03:20.042Z,-2.83
2022-12-14T02:05:54.599Z,-2.78
2022-12-14T02:08:23.415Z,-2.78
2022-12-14T02:10:51.884Z,-2.71
2022-12-14T02:13:29.601Z,-2.70
2022-12-14T02:15:56.709Z,-2.71
2022-12-14T02:18:43.538Z,-2.61
2022-12-14T02:21:35.351Z,-2.55
2022-12-14T02:24:08.358Z,-2.37
2022-12-14T02:27:12.497Z,-2.40
2022-12-14T02:29:51.764Z,-2.41
2022-12-14T02:32:32.410Z,-2.34
2022-12-14T02:35:19.442Z,-2.33
2022-12-14T02:38:06.231Z,-2.35
2022-12-14T02:40:42.188Z,-2.29
2022-12-14T02:43:38.460Z,-2.23
2022-12-14T02:46:23.825Z,-2.12
2022-12-14T02:49:14.083Z,-2.28
2022-12-14T02:52:03.593Z,-2.26
2022-12-14T02:55:03.774Z,-2.24
2022-12-14T02:57:48.891Z,-2.31
2022-12-14T03:00:16.289Z,-2.23
2022-12-14T03:02:45.733Z,-2.16
2022-12-14T03:05:12.792Z,-2.18
2022-12-14T03:07:58.860Z,-2.25
2022-12-14T03:10:34.526Z,-2.18
2022-12-14T03:13:34.812Z,-2.13
2022-12-14T03:16:13.514Z,-1.98
2022-12-14T03:18:54.817Z,-2.02
2022-12-14T03:21:28.703Z,-1.93
2022-12-14T03:23:57.499Z,-1.97
2022-12-14T03:26:38.388Z,-1.97
2022-12-14T03:29:21.654Z,-1.90
2022-12-14T03:31:56.670Z,-1.90
2022-12-14T03:34:31.953Z,-1.79
2022-12-14T03:37:17.462Z,-1.93
2022-12-14T03:39:45.685Z,-1.83
2022-12-14T03:42:20.913Z,-1.75
2022-12-14T03:45:03.534Z,-1.83
2022-12-14T03:47:45.317Z,-1.87
2022-12-14T03:50:16.403Z,-1.96
2022-12-14T03:53:06.597Z,-1.90
2022-12-14T03:56:11.196Z,-1.89
2022-12-14T03:58:41.011Z,-1.81
2022-12-14T04:01:19.173Z,-1.80
2022-12-14T04:04:07.056Z,-1.74
2022-12-14T04:06:36.542Z,-1.60
2022-12-14T04:09:35.167Z,-1.60
2022-12-14T04:12:35.607Z,-1.67
2022-12-14T04:15:30.296Z,-1.71
2022-12-14T04:18:21.406Z,-1.71
2022-12-14T04:21:10.779Z,-1.75
2022-12-14T04:24:04.915Z,-1.65
2022-12-14T04:26:40.581Z,-1.54
2022-12-14T04:29:33.560Z,-1.51
2022-12-14T04:32:15.508Z,-1.58
2022-12-14T04:34:45.573Z,-1.49
2022-12-14T04:37:16.884Z,-1.50
2022-12-14T04:39:54.726Z,-1.54
2022-12-14T04:42:28.239Z,-1.53
2022-12-14T04:45:01.315Z,-1.52
2022-12-14T04:47:33.888Z,-1.51
2022-12-14T04:50:07.575Z,-1.56
2022-12-14T04:52:43.583Z,-1.56
2022-12-14T04:55:38.519Z,-1.55
2022-12-14T04:58:13.346Z,-1.59
2022-12-14T05:01:06.124Z,-1.59
2022-12-14T05:03:41.260Z,-1.49
2022-12-14T05:06:20.057Z,-1.50
2022-12-14T05:09:16.285Z,-1.43
2022-12-14T05:11:54.594Z,-1.42
2022-12-14T05:14:34.966Z,-1.45
2022-12-14T05:17:08.778Z,-1.40
2022-12-14T05:19:37.659Z,-1.41
2022-12-14T05:22:07.176Z,-1.44
2022-12-14T05:24:35.109Z,-1.40
2022-12-14T05:27:01.879Z,-1.39
2022-12-14T05:29:28.711Z,-1.46
2022-12-14T05:31:55.616Z,-1.46
2022-12-14T05:34:23.768Z,-1.42
2022-12-14T05:36:50.575Z,-1.41
2022-12-14T05:39:17.722Z,-1.37
2022-12-14T05:41:44.831Z,-1.37
2022-12-14T05:44:11.816Z,-1.43
2022-12-14T05:46:38.491Z,-1.40
2022-12-14T05:49:05.355Z,-1.34
2022-12-14T05:51:32.304Z,-1.41
2022-12-14T05:54:00.379Z,-1.37
2022-12-14T05:56:27.174Z,-1.38
2022-12-14T05:58:53.973Z,-1.49
2022-12-14T06:01:20.992Z,-1.58
2022-12-14T06:03:48.274Z,-1.57
2022-12-14T06:06:16.730Z,-1.66
2022-12-14T06:08:45.602Z,-1.68
2022-12-14T06:11:19.270Z,-1.73
2022-12-14T06:13:46.829Z,-1.74
2022-12-14T06:16:15.381Z,-1.73
2022-12-14T06:18:53.863Z,-1.80
2022-12-14T06:21:22.932Z,-1.82
2022-12-14T06:23:51.359Z,-1.81
2022-12-14T06:26:18.790Z,-1.82
2022-12-14T06:28:45.799Z,-1.79
2022-12-14T06:31:20.822Z,-1.75
2022-12-14T06:33:48.075Z,-1.71
2022-12-14T06:36:22.293Z,-1.74
2022-12-14T06:38:50.136Z,-1.71
2022-12-14T06:41:19.410Z,-1.68
2022-12-14T06:43:49.353Z,-1.74
2022-12-14T06:46:19.557Z,-1.76
2022-12-14T06:48:51.206Z,-1.76
2022-12-14T06:51:18.102Z,-1.76
2022-12-14T06:53:44.828Z,-1.71
2022-12-14T06:56:17.684Z,-1.77
2022-12-14T06:58:44.822Z,-1.70
2022-12-14T07:01:24.377Z,-1.69
2022-12-14T07:03:54.669Z,-1.64
2022-12-14T07:06:25.601Z,-1.58
2022-12-14T07:08:56.976Z,-1.59
2022-12-14T07:11:24.743Z,-1.57
2022-12-14T07:13:51.482Z,-1.53
2022-12-14T07:16:22.995Z,-1.48
2022-12-14T07:18:50.251Z,-1.51
2022-12-14T07:21:19.021Z,-1.46
2022-12-14T07:23:47.906Z,-1.52
2022-12-14T07:26:23.995Z,-1.53
2022-12-14T07:28:51.660Z,-1.50
2022-12-14T07:31:26.568Z,-1.48
2022-12-14T07:33:55.290Z,-1.41
2022-12-14T07:36:23.515Z,-1.44
2022-12-14T07:38:51.681Z,-1.44
2022-12-14T07:41:23.091Z,-1.45
2022-12-14T07:43:50.994Z,-1.45
2022-12-14T07:46:22.198Z,-1.38
2022-12-14T07:48:51.194Z,-1.36
2022-12-14T07:51:20.745Z,-1.31
2022-12-14T07:53:48.456Z,-1.25
2022-12-14T07:56:17.991Z,-1.25
2022-12-14T07:58:45.023Z,-1.23
2022-12-14T08:01:29.898Z,-1.33
2022-12-14T08:03:59.968Z,-1.30
2022-12-14T08:06:28.697Z,-1.29
2022-12-14T08:08:56.388Z,-1.29
2022-12-14T08:11:24.220Z,-1.24
2022-12-14T08:13:58.677Z,-1.15
2022-12-14T08:16:26.145Z,-1.11
2022-12-14T08:18:58.215Z,-1.14
2022-12-14T08:21:25.898Z,-1.10
2022-12-14T08:23:54.566Z,-1.08
2022-12-14T08:26:22.783Z,-0.98
2022-12-14T08:28:49.884Z,-1.03
2022-12-14T08:31:19.146Z,-1.02
2022-12-14T08:33:46.996Z,-0.93
2022-12-14T08:36:16.655Z,-0.94
2022-12-14T08:38:44.117Z,-0.81
2022-12-14T08:41:13.558Z,-0.80
2022-12-14T08:43:41.365Z,-0.81
2022-12-14T08:46:09.476Z,-0.74
2022-12-14T08:48:36.529Z,-0.67
2022-12-14T08:51:09.253Z,-0.72
2022-12-14T08:53:37.546Z,-0.73
2022-12-14T08:56:10.661Z,-0.70
2022-12-14T08:58:39.238Z,-0.65
2022-12-14T09:01:08.965Z,-0.60
2022-12-14T09:03:36.047Z,-0.58
2022-12-14T09:06:07.756Z,-0.52
2022-12-14T09:08:35.462Z,-0.47
2022-12-14T09:11:03.335Z,-0.51
2022-12-14T09:13:30.680Z,-0.54
2022-12-14T09:16:03.151Z,-0.48
2022-12-14T09:18:30.887Z,-0.36
2022-12-14T09:20:58.470Z,-0.38
2022-12-14T09:23:27.913Z,-0.28
2022-12-14T09:26:11.188Z,-0.34
2022-12-14T09:28:40.615Z,-0.30
2022-12-14T09:31:15.441Z,-0.34
2022-12-14T09:33:42.621Z,-0.27
2022-12-14T09:36:16.637Z,-0.28
2022-12-14T09:38:50.582Z,-0.35
2022-12-14T09:41:36.139Z,-0.35
2022-12-14T09:44:25.028Z,-0.32
2022-12-14T09:46:54.371Z,-0.18
2022-12-14T09:49:31.980Z,-0.20
2022-12-14T09:52:02.033Z,-0.19
2022-12-14T09:54:35.506Z,-0.20
2022-12-14T09:57:07.058Z,-0.33
2022-12-14T09:59:42.696Z,-0.18
2022-12-14T10:02:50.658Z,-0.15
2022-12-14T10:05:48.595Z,-0.14
2022-12-14T10:08:27.794Z,-0.08
2022-12-14T10:11:06.242Z,-0.09
2022-12-14T10:13:58.983Z,-0.12
2022-12-14T10:17:03.103Z,-0.07
2022-12-14T10:19:34.873Z,-0.20
2022-12-14T10:22:16.202Z,-0.04
2022-12-14T10:24:44.518Z,0.07
2022-12-14T10:27:20.328Z,0.12
2022-12-14T10:29:58.060Z,0.12
2022-12-14T10:32:41.347Z,0.06
2022-12-14T10:35:19.963Z,0.08
2022-12-14T10:38:05.078Z,0.15
2022-12-14T10:40:34.920Z,0.10
2022-12-14T10:43:27.096Z,0.05
2022-12-14T10:46:01.734Z,0.16
2022-12-14T10:48:47.465Z,0.21
2022-12-14T10:51:38.789Z,0.16
2022-12-14T10:54:20.637Z,0.15
2022-12-14T10:56:50.420Z,0.24
2022-12-14T10:59:23.893Z,0.31
2022-12-14T11:02:05.813Z,0.33
2022-12-14T11:04:57.552Z,0.26
2022-12-14T11:07:39.131Z,0.24
2022-12-14T11:10:30.250Z,0.18
2022-12-14T11:13:04.231Z,0.14
2022-12-14T11:15:47.170Z,0.13
2022-12-14T11:18:19.877Z,0.09
2022-12-14T11:20:53.949Z,0.09
2022-12-14T11:23:25.722Z,0.21
2022-12-14T11:25:59.635Z,0.26
2022-12-14T11:28:50.311Z,0.19
2022-12-14T11:31:46.699Z,0.15
2022-12-14T11:34:39.494Z,0.13
2022-12-14T11:37:31.885Z,0.27
2022-12-14T11:40:05.534Z,0.47
2022-12-14T11:42:33.391Z,0.57
2022-12-14T11:45:26.628Z,0.37
2022-12-14T11:48:15.340Z,0.34
2022-12-14T11:50:44.760Z,0.38
2022-12-14T11:53:14.653Z,0.33
2022-12-14T11:55:56.106Z,0.27
2022-12-14T11:58:37.810Z,0.21
2022-12-14T12:01:26.368Z,0.14
2022-12-14T12:03:58.798Z,0.28
2022-12-14T12:06:28.383Z,0.38
2022-12-14T12:09:00.505Z,0.48
2022-12-14T12:11:34.924Z,0.51
2022-12-14T12:14:06.986Z,0.60
2022-12-14T12:16:35.644Z,0.55
2022-12-14T12:19:11.557Z,0.48
2022-12-14T12:21:41.779Z,0.59
2022-12-14T12:24:20.150Z,0.56
2022-12-14T12:27:00.371Z,0.50
2022-12-14T12:29:36.642Z,0.62
2022-12-14T12:32:18.751Z,0.59
2022-12-14T12:34:52.513Z,0.63
2022-12-14T12:37:31.365Z,0.62
2022-12-14T12:40:10.454Z,0.67
2022-12-14T12:42:42.038Z,0.82
2022-12-14T12:45:25.769Z,0.86
2022-12-14T12:48:30.337Z,0.74
2022-12-14T12:51:07.915Z,0.63
2022-12-14T12:53:39.797Z,0.69
2022-12-14T12:56:12.778Z,0.57
2022-12-14T12:58:40.811Z,0.51
2022-12-14T13:01:35.486Z,0.41
2022-12-14T13:04:10.527Z,0.47
2022-12-14T13:06:59.084Z,0.36
2022-12-14T13:09:44.405Z,0.39
2022-12-14T13:12:27.271Z,0.42
2022-12-14T13:14:57.240Z,0.41
2022-12-14T13:17:41.613Z,0.44
2022-12-14T13:20:24.518Z,0.46
2022-12-14T13:22:51.972Z,0.50
2022-12-14T13:25:27.261Z,0.53
2022-12-14T13:28:21.292Z,0.57
2022-12-14T13:31:16.881Z,0.52
2022-12-14T13:33:58.888Z,0.57
2022-12-14T13:36:37.045Z,0.52
2022-12-14T13:39:22.010Z,0.53
2022-12-14T13:42:09.717Z,0.62
2022-12-14T13:44:57.167Z,0.56
2022-12-14T13:47:35.125Z,0.66
2022-12-14T13:50:34.816Z,0.63
2022-12-14T13:53:01.121Z,0.56
2022-12-14T13:55:36.580Z,0.52
2022-12-14T13:58:34.081Z,0.49
2022-12-14T14:01:09.437Z,0.50
2022-12-14T14:03:36.492Z,0.51
2022-12-14T14:06:12.356Z,0.42
2022-12-14T14:08:50.818Z,0.47
2022-12-14T14:11:40.787Z,0.41
2022-12-14T14:14:25.553Z,0.48
2022-12-14T14:17:08.535Z,0.56
2022-12-14T14:19:41.076Z,0.58
2022-12-14T14:22:23.795Z,0.57
2022-12-14T14:25:09.099Z,0.63
2022-12-14T14:27:40.106Z,0.67
2022-12-14T14:30:28.400Z,0.68
2022-12-14T14:33:07.664Z,0.68
2022-12-14T14:35:42.456Z,0.64
2022-12-14T14:38:31.445Z,0.54
2022-12-14T14:41:18.255Z,0.59
2022-12-14T14:43:57.151Z,0.58
2022-12-14T14:46:34.099Z,0.50
2022-12-14T14:49:01.266Z,0.56
2022-12-14T14:51:30.861Z,0.57
2022-12-14T14:54:37.689Z,0.51
2022-12-14T14:57:03.124Z,0.60
2022-12-14T14:59:40.339Z,0.65
2022-12-14T15:02:32.732Z,0.63
2022-12-14T15:05:24.836Z,0.62
2022-12-14T15:07:48.574Z,0.64
2022-12-14T15:10:30.314Z,0.65
2022-12-14T15:13:23.562Z,0.67
2022-12-14T15:15:53.261Z,0.69
2022-12-14T15:18:20.270Z,0.74
2022-12-14T15:21:07.615Z,0.74
2022-12-14T15:23:43.805Z,0.76
2022-12-14T15:26:21.474Z,0.78
2022-12-14T15:28:54.134Z,0.79
2022-12-14T15:31:30.743Z,0.82
2022-12-14T15:33:58.462Z,0.85
2022-12-14T15:36:30.626Z,0.85
2022-12-14T15:38:58.913Z,0.91
2022-12-14T15:41:29.195Z,0.89
2022-12-14T15:43:59.989Z,0.90
2022-12-14T15:46:33.556Z,0.95
2022-12-14T15:49:03.907Z,0.96
2022-12-14T15:51:38.216Z,0.96
2022-12-14T15:54:07.463Z,0.98
2022-12-14T15:56:36.149Z,1.07
2022-12-14T15:59:07.320Z,1.13
2022-12-14T16:01:39.959Z,1.10
2022-12-14T16:04:19.922Z,1.06
2022-12-14T16:06:56.956Z,1.06
2022-12-14T16:09:28.654Z,1.03
2022-12-14T16:12:05.358Z,1.04
2022-12-14T16:14:54.367Z,0.99
2022-12-14T16:17:26.485Z,0.92
2022-12-14T16:20:03.851Z,0.90
2022-12-14T16:22:32.143Z,0.92
2022-12-14T16:25:21.724Z,0.92
2022-12-14T16:27:51.078Z,0.95
2022-12-14T16:30:24.494Z,1.01
2022-12-14T16:33:13.449Z,1.03
2022-12-14T16:35:40.420Z,1.06
2022-12-14T16:38:11.578Z,1.06
2022-12-14T16:40:41.983Z,1.10
2022-12-14T16:43:26.858Z,1.10
2022-12-14T16:46:05.578Z,1.22
2022-12-14T16:48:34.042Z,1.18
2022-12-14T16:51:32.694Z,1.19
2022-12-14T16:54:21.245Z,1.18
2022-12-14T16:56:49.730Z,1.22
2022-12-14T16:59:34.173Z,1.17
2022-12-14T17:02:01.285Z,1.27
2022-12-14T17:04:36.673Z,1.23
2022-12-14T17:07:04.413Z,1.23
2022-12-14T17:09:36.740Z,1.26
2022-12-14T17:12:13.569Z,1.24
2022-12-14T17:14:47.584Z,1.21
2022-12-14T17:17:38.131Z,1.21
2022-12-14T17:20:13.682Z,1.22
2022-12-14T17:22:41.644Z,1.21
2022-12-14T17:25:10.325Z,1.17
2022-12-14T17:27:37.039Z,1.12
2022-12-14T17:30:08.148Z,1.07
2022-12-14T17:32:35.083Z,1.09
2022-12-14T17:35:03.830Z,1.11
2022-12-14T17:37:36.419Z,1.12
2022-12-14T17:40:04.346Z,1.12
2022-12-14T17:42:31.413Z,1.18
2022-12-14T17:44:59.923Z,1.21
2022-12-14T17:47:26.853Z,1.19
2022-12-14T17:49:53.658Z,1.16
2022-12-14T17:52:32.217Z,1.02
2022-12-14T17:54:59.635Z,1.02
2022-12-14T17:57:27.177Z,1.08
2022-12-14T18:00:12.363Z,1.15
2022-12-14T18:02:40.087Z,1.11
2022-12-14T18:05:19.274Z,1.11
2022-12-14T18:07:46.125Z,1.23
2022-12-14T18:10:18.074Z,1.29
2022-12-14T18:12:45.178Z,1.25
2022-12-14T18:15:25.453Z,1.21
2022-12-14T18:17:52.308Z,1.29
2022-12-14T18:20:22.871Z,1.27
2022-12-14T18:22:50.430Z,1.29
2022-12-14T18:25:26.584Z,1.24
2022-12-14T18:27:53.330Z,1.27
2022-12-14T18:30:20.486Z,1.25
2022-12-14T18:32:47.480Z,1.25
2022-12-14T18:35:23.189Z,1.23
2022-12-14T18:37:51.130Z,1.16
2022-12-14T18:40:23.079Z,1.13
2022-12-14T18:42:49.994Z,1.14
2022-12-14T18:45:30.748Z,1.13
2022-12-14T18:47:59.118Z,1.13
2022-12-14T18:50:26.763Z,1.22
2022-12-14T18:52:55.587Z,1.17
2022-12-14T18:55:30.853Z,1.19
2022-12-14T18:58:00.720Z,1.24
2022-12-14T19:00:32.691Z,1.26
2022-12-14T19:03:03.146Z,1.18
2022-12-14T19:05:31.219Z,1.17
2022-12-14T19:08:00.569Z,1.14
2022-12-14T19:10:32.861Z,1.12
2022-12-14T19:12:59.683Z,1.17
2022-12-14T19:15:29.420Z,1.18
2022-12-14T19:17:56.611Z,1.16
2022-12-14T19:20:25.187Z,1.20
2022-12-14T19:22:52.028Z,1.23
2022-12-14T19:25:20.332Z,1.17
2022-12-14T19:30:34.950Z,1.23
2022-12-14T19:33:01.824Z,1.23
2022-12-14T19:35:28.732Z,1.25
2022-12-14T19:37:55.516Z,1.27
2022-12-14T19:40:22.313Z,1.23
2022-12-14T19:42:49.100Z,1.20
2022-12-14T19:45:16.188Z,1.19
2022-12-14T19:47:44.096Z,1.24
2022-12-14T19:50:15.230Z,1.23
2022-12-14T19:52:42.706Z,1.28
2022-12-14T19:55:10.959Z,1.34
2022-12-14T19:57:39.277Z,1.34
2022-12-14T20:00:10.635Z,1.33
2022-12-14T20:02:38.110Z,1.34
2022-12-14T20:05:06.220Z,1.41
2022-12-14T20:07:33.086Z,1.41
2022-12-14T20:09:59.991Z,1.48
2022-12-14T20:12:26.829Z,1.55
2022-12-14T20:14:53.495Z,1.61
2022-12-14T20:17:20.324Z,1.59
2022-12-14T20:19:47.121Z,1.52
2022-12-14T20:22:15.108Z,1.51
2022-12-14T20:24:42.807Z,1.55
2022-12-14T20:27:09.816Z,1.62
2022-12-14T20:29:37.885Z,1.57
2022-12-14T20:32:04.767Z,1.57
2022-12-14T20:34:33.212Z,1.46
2022-12-14T20:37:00.646Z,1.40
2022-12-14T20:39:27.388Z,1.36
2022-12-14T20:41:54.114Z,1.33
2022-12-14T20:44:20.856Z,1.36
2022-12-14T20:46:47.742Z,1.31
2022-12-14T20:49:19.720Z,1.28
2022-12-14T20:51:47.698Z,1.33
2022-12-14T20:54:18.060Z,1.27
2022-12-14T20:56:49.699Z,1.28
2022-12-14T20:59:16.841Z,1.30
2022-12-14T21:01:51.771Z,1.33
2022-12-14T21:04:22.116Z,1.40
2022-12-14T21:06:48.764Z,1.41
2022-12-14T21:09:15.536Z,1.47
2022-12-14T21:12:02.099Z,1.51
2022-12-14T21:14:34.465Z,1.51
2022-12-14T21:17:02.299Z,1.53
2022-12-14T21:19:29.118Z,1.51
2022-12-14T21:21:56.344Z,1.54
2022-12-14T21:25:00.521Z,1.61
2022-12-14T21:27:17.525Z,1.63
2022-12-14T21:29:44.920Z,1.64
2022-12-14T21:32:11.943Z,1.62
2022-12-14T21:34:41.879Z,1.61
2022-12-14T21:37:10.401Z,1.57
2022-12-14T21:39:37.190Z,1.62
2022-12-14T21:42:15.456Z,1.69
2022-12-14T21:44:45.002Z,1.76
2022-12-14T21:47:14.908Z,1.73
2022-12-14T21:49:43.265Z,1.78
2022-12-14T21:52:15.472Z,1.75
2022-12-14T21:54:42.985Z,1.77
2022-12-14T21:57:36.961Z,1.76
2022-12-14T22:00:07.401Z,1.59
2022-12-14T22:02:41.586Z,1.85
2022-12-14T22:05:09.267Z,1.80
2022-12-14T22:07:36.015Z,1.81
2022-12-14T22:10:02.876Z,1.78
2022-12-14T22:12:29.724Z,1.74
2022-12-14T22:14:56.537Z,1.73
2022-12-14T22:17:23.255Z,1.76
2022-12-14T22:19:51.205Z,1.77
2022-12-14T22:22:17.931Z,1.77
2022-12-14T22:24:47.921Z,1.67
2022-12-14T22:27:15.071Z,1.67
2022-12-14T22:29:41.807Z,1.59
2022-12-14T22:32:10.982Z,1.60
2022-12-14T22:34:37.776Z,1.60
2022-12-14T22:37:04.521Z,1.56
2022-12-14T22:39:31.257Z,1.56
2022-12-14T22:41:57.976Z,1.52
2022-12-14T22:44:24.721Z,1.56
2022-12-14T22:46:51.536Z,1.58
2022-12-14T22:49:19.587Z,1.57
2022-12-14T22:51:46.682Z,1.64
2022-12-14T22:54:24.880Z,1.63
2022-12-14T22:57:09.720Z,1.57
2022-12-14T22:59:43.628Z,1.59
2022-12-14T23:02:10.510Z,1.66
2022-12-14T23:04:38.083Z,1.64
2022-12-14T23:07:05.532Z,1.56
2022-12-14T23:09:50.755Z,1.47
2022-12-14T23:12:36.091Z,1.47
2022-12-14T23:15:21.305Z,1.53
2022-12-14T23:18:06.831Z,1.58
2022-12-14T23:20:52.352Z,1.59
2022-12-14T23:23:37.443Z,1.59
2022-12-14T23:26:23.649Z,1.61
2022-12-14T23:29:08.909Z,1.50
2022-12-14T23:31:54.131Z,1.41
2022-12-14T23:34:39.630Z,1.48
2022-12-14T23:37:25.020Z,1.55
2022-12-14T23:40:10.459Z,1.56
2022-12-14T23:42:55.745Z,1.50
2022-12-14T23:45:41.060Z,1.50
2022-12-14T23:48:26.335Z,1.53
2022-12-14T23:51:11.718Z,1.64
2022-12-14T23:53:57.032Z,1.68
2022-12-14T23:56:42.272Z,1.73
2022-12-14T23:59:31.995Z,1.79
